sensor_id;sensor_type;location;lat;lon;timestamp;temperature;humidity
13229;DHT22;6680;53.220;10.402;2022-08-25T00:00:05;18.80;99.90
13229;DHT22;6680;53.220;10.402;2022-08-25T00:02:32;18.80;99.90
13229;DHT22;6680;53.220;10.402;2022-08-25T00:04:59;18.70;99.90
13229;DHT22;6680;53.220;10.402;2022-08-25T00:07:27;18.80;99.90
13229;DHT22;6680;53.220;10.402;2022-08-25T00:09:54;18.80;99.90
13229;DHT22;6680;53.220;10.402;2022-08-25T00:12:21;18.70;99.90
13229;DHT22;6680;53.220;10.402;2022-08-25T00:14:48;18.70;99.90
13229;DHT22;6680;53.220;10.402;2022-08-25T00:17:14;18.70;99.90
13229;DHT22;6680;53.220;10.402;2022-08-25T00:19:41;18.60;99.90
13229;DHT22;6680;53.220;10.402;2022-08-25T00:22:08;18.60;99.90
13229;DHT22;6680;53.220;10.402;2022-08-25T00:24:36;18.60;99.90
13229;DHT22;6680;53.220;10.402;2022-08-25T00:27:04;18.50;99.90
13229;DHT22;6680;53.220;10.402;2022-08-25T00:29:32;18.50;99.90
13229;DHT22;6680;53.220;10.402;2022-08-25T00:31:59;18.50;99.90
13229;DHT22;6680;53.220;10.402;2022-08-25T00:34:29;18.40;99.90
13229;DHT22;6680;53.220;10.402;2022-08-25T00:36:56;18.40;99.90
13229;DHT22;6680;53.220;10.402;2022-08-25T00:39:24;18.30;99.90
13229;DHT22;6680;53.220;10.402;2022-08-25T00:41:55;18.30;99.90
13229;DHT22;6680;53.220;10.402;2022-08-25T00:44:24;18.30;99.90
13229;DHT22;6680;53.220;10.402;2022-08-25T00:46:52;18.20;99.90
13229;DHT22;6680;53.220;10.402;2022-08-25T00:49:23;18.10;99.90
13229;DHT22;6680;53.220;10.402;2022-08-25T00:51:54;18.10;99.90
13229;DHT22;6680;53.220;10.402;2022-08-25T00:54:26;18.10;99.90
13229;DHT22;6680;53.220;10.402;2022-08-25T00:56:55;18.10;99.90
13229;DHT22;6680;53.220;10.402;2022-08-25T00:59:24;18.10;99.90
13229;DHT22;6680;53.220;10.402;2022-08-25T01:01:52;18.10;99.90
13229;DHT22;6680;53.220;10.402;2022-08-25T01:04:19;18.10;99.90
13229;DHT22;6680;53.220;10.402;2022-08-25T01:06:47;18.00;99.90
13229;DHT22;6680;53.220;10.402;2022-08-25T01:09:15;18.00;99.90
13229;DHT22;6680;53.220;10.402;2022-08-25T01:11:43;18.00;99.90
13229;DHT22;6680;53.220;10.402;2022-08-25T01:14:15;17.90;99.90
13229;DHT22;6680;53.220;10.402;2022-08-25T01:16:43;17.80;99.90
13229;DHT22;6680;53.220;10.402;2022-08-25T01:19:12;17.80;99.90
13229;DHT22;6680;53.220;10.402;2022-08-25T01:21:42;17.80;99.90
13229;DHT22;6680;53.220;10.402;2022-08-25T01:24:12;17.80;99.90
13229;DHT22;6680;53.220;10.402;2022-08-25T01:26:40;17.80;99.90
13229;DHT22;6680;53.220;10.402;2022-08-25T01:29:08;17.80;99.90
13229;DHT22;6680;53.220;10.402;2022-08-25T01:31:47;17.80;99.90
13229;DHT22;6680;53.220;10.402;2022-08-25T01:34:18;17.80;99.90
13229;DHT22;6680;53.220;10.402;2022-08-25T01:36:47;17.80;99.90
13229;DHT22;6680;53.220;10.402;2022-08-25T01:39:14;17.80;99.90
13229;DHT22;6680;53.220;10.402;2022-08-25T01:41:52;17.80;99.90
13229;DHT22;6680;53.220;10.402;2022-08-25T01:44:19;17.80;99.90
13229;DHT22;6680;53.220;10.402;2022-08-25T01:46:46;17.80;99.90
13229;DHT22;6680;53.220;10.402;2022-08-25T01:49:13;17.80;99.90
13229;DHT22;6680;53.220;10.402;2022-08-25T01:51:45;17.80;99.90
13229;DHT22;6680;53.220;10.402;2022-08-25T01:54:14;17.80;99.90
13229;DHT22;6680;53.220;10.402;2022-08-25T01:56:41;17.70;99.90
13229;DHT22;6680;53.220;10.402;2022-08-25T01:59:07;17.70;99.90
13229;DHT22;6680;53.220;10.402;2022-08-25T02:01:35;17.70;99.90
13229;DHT22;6680;53.220;10.402;2022-08-25T02:04:02;17.80;99.90
13229;DHT22;6680;53.220;10.402;2022-08-25T02:06:30;17.60;99.90
13229;DHT22;6680;53.220;10.402;2022-08-25T02:08:58;17.60;99.90
13229;DHT22;6680;53.220;10.402;2022-08-25T02:11:27;17.50;99.90
13229;DHT22;6680;53.220;10.402;2022-08-25T02:13:54;17.70;99.90
13229;DHT22;6680;53.220;10.402;2022-08-25T02:16:24;17.50;99.90
13229;DHT22;6680;53.220;10.402;2022-08-25T02:18:53;17.50;99.90
13229;DHT22;6680;53.220;10.402;2022-08-25T02:21:20;17.40;99.90
13229;DHT22;6680;53.220;10.402;2022-08-25T02:23:47;16.80;99.90
13229;DHT22;6680;53.220;10.402;2022-08-25T02:26:14;17.30;99.90
13229;DHT22;6680;53.220;10.402;2022-08-25T02:28:45;17.30;99.90
13229;DHT22;6680;53.220;10.402;2022-08-25T02:31:12;17.20;99.90
13229;DHT22;6680;53.220;10.402;2022-08-25T02:33:38;17.50;99.90
13229;DHT22;6680;53.220;10.402;2022-08-25T02:36:06;17.10;99.90
13229;DHT22;6680;53.220;10.402;2022-08-25T02:38:33;17.10;99.90
13229;DHT22;6680;53.220;10.402;2022-08-25T02:41:06;17.00;99.90
13229;DHT22;6680;53.220;10.402;2022-08-25T02:43:33;17.00;99.90
13229;DHT22;6680;53.220;10.402;2022-08-25T02:46:01;17.00;99.90
13229;DHT22;6680;53.220;10.402;2022-08-25T02:48:28;16.90;99.90
13229;DHT22;6680;53.220;10.402;2022-08-25T02:50:59;17.00;99.90
13229;DHT22;6680;53.220;10.402;2022-08-25T02:53:27;16.90;99.90
13229;DHT22;6680;53.220;10.402;2022-08-25T02:55:54;16.90;99.90
13229;DHT22;6680;53.220;10.402;2022-08-25T02:58:21;16.90;99.90
13229;DHT22;6680;53.220;10.402;2022-08-25T03:00:48;16.90;99.90
13229;DHT22;6680;53.220;10.402;2022-08-25T03:03:18;16.90;99.90
13229;DHT22;6680;53.220;10.402;2022-08-25T03:05:46;16.90;99.90
13229;DHT22;6680;53.220;10.402;2022-08-25T03:08:12;16.80;99.90
13229;DHT22;6680;53.220;10.402;2022-08-25T03:10:39;16.80;99.90
13229;DHT22;6680;53.220;10.402;2022-08-25T03:13:06;16.80;99.90
13229;DHT22;6680;53.220;10.402;2022-08-25T03:15:32;16.80;99.90
13229;DHT22;6680;53.220;10.402;2022-08-25T03:18:02;16.70;99.90
13229;DHT22;6680;53.220;10.402;2022-08-25T03:20:31;16.70;99.90
13229;DHT22;6680;53.220;10.402;2022-08-25T03:23:00;16.80;99.90
13229;DHT22;6680;53.220;10.402;2022-08-25T03:25:28;16.80;99.90
13229;DHT22;6680;53.220;10.402;2022-08-25T03:28:12;16.80;99.90
13229;DHT22;6680;53.220;10.402;2022-08-25T03:30:39;16.70;99.90
13229;DHT22;6680;53.220;10.402;2022-08-25T03:33:06;16.70;99.90
13229;DHT22;6680;53.220;10.402;2022-08-25T03:35:34;16.70;99.90
13229;DHT22;6680;53.220;10.402;2022-08-25T03:38:01;16.70;99.90
13229;DHT22;6680;53.220;10.402;2022-08-25T03:40:28;16.80;99.90
13229;DHT22;6680;53.220;10.402;2022-08-25T03:42:55;16.80;99.90
13229;DHT22;6680;53.220;10.402;2022-08-25T03:45:22;16.70;99.90
13229;DHT22;6680;53.220;10.402;2022-08-25T03:47:50;16.70;99.90
13229;DHT22;6680;53.220;10.402;2022-08-25T03:50:19;16.70;99.90
13229;DHT22;6680;53.220;10.402;2022-08-25T03:52:51;16.70;99.90
13229;DHT22;6680;53.220;10.402;2022-08-25T03:55:19;16.60;99.90
13229;DHT22;6680;53.220;10.402;2022-08-25T03:57:46;16.60;99.90
13229;DHT22;6680;53.220;10.402;2022-08-25T04:00:13;16.60;99.90
13229;DHT22;6680;53.220;10.402;2022-08-25T04:02:41;16.60;99.90
13229;DHT22;6680;53.220;10.402;2022-08-25T04:05:08;16.60;99.90
13229;DHT22;6680;53.220;10.402;2022-08-25T04:07:35;16.60;99.90
13229;DHT22;6680;53.220;10.402;2022-08-25T04:10:04;16.50;99.90
13229;DHT22;6680;53.220;10.402;2022-08-25T04:12:31;16.50;99.90
13229;DHT22;6680;53.220;10.402;2022-08-25T04:14:57;16.50;99.90
13229;DHT22;6680;53.220;10.402;2022-08-25T04:17:24;16.40;99.90
13229;DHT22;6680;53.220;10.402;2022-08-25T04:19:51;16.40;99.90
13229;DHT22;6680;53.220;10.402;2022-08-25T04:22:18;16.40;99.90
13229;DHT22;6680;53.220;10.402;2022-08-25T04:24:44;16.40;99.90
13229;DHT22;6680;53.220;10.402;2022-08-25T04:27:12;16.40;99.90
13229;DHT22;6680;53.220;10.402;2022-08-25T04:29:39;16.40;99.90
13229;DHT22;6680;53.220;10.402;2022-08-25T04:32:06;16.40;99.90
13229;DHT22;6680;53.220;10.402;2022-08-25T04:34:32;16.40;99.90
13229;DHT22;6680;53.220;10.402;2022-08-25T04:37:01;16.50;99.90
13229;DHT22;6680;53.220;10.402;2022-08-25T04:39:28;16.50;99.90
13229;DHT22;6680;53.220;10.402;2022-08-25T04:41:54;16.50;99.90
13229;DHT22;6680;53.220;10.402;2022-08-25T04:44:23;16.50;99.90
13229;DHT22;6680;53.220;10.402;2022-08-25T04:46:49;16.50;99.90
13229;DHT22;6680;53.220;10.402;2022-08-25T04:49:16;16.50;99.90
13229;DHT22;6680;53.220;10.402;2022-08-25T04:51:43;16.50;99.90
13229;DHT22;6680;53.220;10.402;2022-08-25T04:54:12;16.60;99.90
13229;DHT22;6680;53.220;10.402;2022-08-25T04:56:42;16.60;99.90
13229;DHT22;6680;53.220;10.402;2022-08-25T04:59:10;16.60;99.90
13229;DHT22;6680;53.220;10.402;2022-08-25T05:01:39;16.70;99.90
13229;DHT22;6680;53.220;10.402;2022-08-25T05:04:09;16.70;99.90
13229;DHT22;6680;53.220;10.402;2022-08-25T05:06:36;16.80;99.90
13229;DHT22;6680;53.220;10.402;2022-08-25T05:09:04;16.90;99.90
13229;DHT22;6680;53.220;10.402;2022-08-25T05:11:31;17.00;99.90
13229;DHT22;6680;53.220;10.402;2022-08-25T05:14:00;17.50;99.90
13229;DHT22;6680;53.220;10.402;2022-08-25T05:16:27;17.20;99.90
13229;DHT22;6680;53.220;10.402;2022-08-25T05:18:56;17.20;99.90
13229;DHT22;6680;53.220;10.402;2022-08-25T05:21:24;17.30;99.90
13229;DHT22;6680;53.220;10.402;2022-08-25T05:23:53;17.60;99.90
13229;DHT22;6680;53.220;10.402;2022-08-25T05:26:21;17.50;99.90
13229;DHT22;6680;53.220;10.402;2022-08-25T05:28:49;17.60;99.90
13229;DHT22;6680;53.220;10.402;2022-08-25T05:31:17;17.70;99.90
13229;DHT22;6680;53.220;10.402;2022-08-25T05:33:44;18.10;99.90
13229;DHT22;6680;53.220;10.402;2022-08-25T05:36:14;17.90;99.90
13229;DHT22;6680;53.220;10.402;2022-08-25T05:38:41;18.00;99.90
13229;DHT22;6680;53.220;10.402;2022-08-25T05:41:11;18.00;99.90
13229;DHT22;6680;53.220;10.402;2022-08-25T05:43:41;18.10;99.90
13229;DHT22;6680;53.220;10.402;2022-08-25T05:46:08;18.10;99.90
13229;DHT22;6680;53.220;10.402;2022-08-25T05:48:35;18.10;99.90
13229;DHT22;6680;53.220;10.402;2022-08-25T05:51:04;18.10;99.90
13229;DHT22;6680;53.220;10.402;2022-08-25T05:53:33;18.20;99.90
13229;DHT22;6680;53.220;10.402;2022-08-25T05:56:00;18.20;99.90
13229;DHT22;6680;53.220;10.402;2022-08-25T05:58:28;18.40;99.90
13229;DHT22;6680;53.220;10.402;2022-08-25T06:00:56;18.40;99.90
13229;DHT22;6680;53.220;10.402;2022-08-25T06:06:10;18.60;99.90
13229;DHT22;6680;53.220;10.402;2022-08-25T06:08:38;18.50;99.90
13229;DHT22;6680;53.220;10.402;2022-08-25T06:11:05;18.50;99.90
13229;DHT22;6680;53.220;10.402;2022-08-25T06:13:32;18.60;99.90
13229;DHT22;6680;53.220;10.402;2022-08-25T06:15:59;18.60;99.90
13229;DHT22;6680;53.220;10.402;2022-08-25T06:18:26;18.60;99.90
13229;DHT22;6680;53.220;10.402;2022-08-25T06:20:52;18.60;99.90
13229;DHT22;6680;53.220;10.402;2022-08-25T06:23:19;18.50;99.90
13229;DHT22;6680;53.220;10.402;2022-08-25T06:25:50;18.60;99.90
13229;DHT22;6680;53.220;10.402;2022-08-25T06:28:17;18.60;99.90
13229;DHT22;6680;53.220;10.402;2022-08-25T06:30:44;18.60;99.90
13229;DHT22;6680;53.220;10.402;2022-08-25T06:33:11;18.70;99.90
13229;DHT22;6680;53.220;10.402;2022-08-25T06:35:40;18.70;99.90
13229;DHT22;6680;53.220;10.402;2022-08-25T06:38:07;18.70;99.90
13229;DHT22;6680;53.220;10.402;2022-08-25T06:40:33;18.70;99.90
13229;DHT22;6680;53.220;10.402;2022-08-25T06:43:01;18.70;99.90
13229;DHT22;6680;53.220;10.402;2022-08-25T06:45:31;18.80;99.90
13229;DHT22;6680;53.220;10.402;2022-08-25T06:47:58;18.80;99.90
13229;DHT22;6680;53.220;10.402;2022-08-25T06:50:24;18.90;99.90
13229;DHT22;6680;53.220;10.402;2022-08-25T06:52:51;18.90;99.90
13229;DHT22;6680;53.220;10.402;2022-08-25T06:55:18;19.00;99.90
13229;DHT22;6680;53.220;10.402;2022-08-25T06:57:44;19.10;99.90
13229;DHT22;6680;53.220;10.402;2022-08-25T07:00:13;19.20;99.90
13229;DHT22;6680;53.220;10.402;2022-08-25T07:02:40;19.30;99.90
13229;DHT22;6680;53.220;10.402;2022-08-25T07:05:07;19.30;99.90
13229;DHT22;6680;53.220;10.402;2022-08-25T07:07:36;19.40;99.90
13229;DHT22;6680;53.220;10.402;2022-08-25T07:10:03;19.40;99.90
13229;DHT22;6680;53.220;10.402;2022-08-25T07:12:30;19.50;99.90
13229;DHT22;6680;53.220;10.402;2022-08-25T07:14:57;19.50;99.90
13229;DHT22;6680;53.220;10.402;2022-08-25T07:17:25;19.50;99.90
13229;DHT22;6680;53.220;10.402;2022-08-25T07:19:52;19.50;99.90
13229;DHT22;6680;53.220;10.402;2022-08-25T07:22:19;19.50;99.90
13229;DHT22;6680;53.220;10.402;2022-08-25T07:24:45;19.60;99.90
13229;DHT22;6680;53.220;10.402;2022-08-25T07:27:12;19.60;99.90
13229;DHT22;6680;53.220;10.402;2022-08-25T07:29:39;19.60;99.90
13229;DHT22;6680;53.220;10.402;2022-08-25T07:32:06;19.60;99.90
13229;DHT22;6680;53.220;10.402;2022-08-25T07:34:34;19.60;99.90
13229;DHT22;6680;53.220;10.402;2022-08-25T07:37:18;19.70;99.90
13229;DHT22;6680;53.220;10.402;2022-08-25T07:39:45;19.70;99.90
13229;DHT22;6680;53.220;10.402;2022-08-25T07:42:12;19.70;99.90
13229;DHT22;6680;53.220;10.402;2022-08-25T07:44:39;19.70;99.90
13229;DHT22;6680;53.220;10.402;2022-08-25T07:47:06;19.80;99.90
13229;DHT22;6680;53.220;10.402;2022-08-25T07:49:34;19.80;99.90
13229;DHT22;6680;53.220;10.402;2022-08-25T07:52:02;19.90;99.90
13229;DHT22;6680;53.220;10.402;2022-08-25T07:54:28;19.90;99.90
13229;DHT22;6680;53.220;10.402;2022-08-25T07:56:56;19.90;99.90
13229;DHT22;6680;53.220;10.402;2022-08-25T07:59:22;20.00;99.90
13229;DHT22;6680;53.220;10.402;2022-08-25T08:01:49;20.00;99.90
13229;DHT22;6680;53.220;10.402;2022-08-25T08:04:16;20.00;99.90
13229;DHT22;6680;53.220;10.402;2022-08-25T08:06:44;20.20;99.90
13229;DHT22;6680;53.220;10.402;2022-08-25T08:09:11;20.30;99.90
13229;DHT22;6680;53.220;10.402;2022-08-25T08:11:38;20.30;99.90
13229;DHT22;6680;53.220;10.402;2022-08-25T08:14:09;20.30;99.90
13229;DHT22;6680;53.220;10.402;2022-08-25T08:16:36;20.20;99.90
13229;DHT22;6680;53.220;10.402;2022-08-25T08:19:03;20.20;99.90
13229;DHT22;6680;53.220;10.402;2022-08-25T08:21:33;20.30;99.90
13229;DHT22;6680;53.220;10.402;2022-08-25T08:24:02;20.30;99.90
13229;DHT22;6680;53.220;10.402;2022-08-25T08:26:29;20.40;99.90
13229;DHT22;6680;53.220;10.402;2022-08-25T08:28:55;20.50;99.90
13229;DHT22;6680;53.220;10.402;2022-08-25T08:31:23;20.60;99.90
13229;DHT22;6680;53.220;10.402;2022-08-25T08:33:52;20.80;99.90
13229;DHT22;6680;53.220;10.402;2022-08-25T08:36:20;20.70;99.90
13229;DHT22;6680;53.220;10.402;2022-08-25T08:38:47;20.80;99.90
13229;DHT22;6680;53.220;10.402;2022-08-25T08:41:38;20.80;99.90
13229;DHT22;6680;53.220;10.402;2022-08-25T08:44:35;20.90;99.90
13229;DHT22;6680;53.220;10.402;2022-08-25T08:47:05;20.90;99.90
13229;DHT22;6680;53.220;10.402;2022-08-25T08:49:38;20.80;99.90
13229;DHT22;6680;53.220;10.402;2022-08-25T08:52:06;20.80;99.90
13229;DHT22;6680;53.220;10.402;2022-08-25T08:54:36;20.90;99.90
13229;DHT22;6680;53.220;10.402;2022-08-25T08:57:09;21.00;99.90
13229;DHT22;6680;53.220;10.402;2022-08-25T08:59:42;21.20;99.90
13229;DHT22;6680;53.220;10.402;2022-08-25T09:02:17;21.30;99.90
13229;DHT22;6680;53.220;10.402;2022-08-25T09:04:50;21.50;99.90
13229;DHT22;6680;53.220;10.402;2022-08-25T09:07:23;21.50;99.90
13229;DHT22;6680;53.220;10.402;2022-08-25T09:09:52;21.60;99.90
13229;DHT22;6680;53.220;10.402;2022-08-25T09:12:25;21.60;99.90
13229;DHT22;6680;53.220;10.402;2022-08-25T09:15:08;21.70;99.90
13229;DHT22;6680;53.220;10.402;2022-08-25T09:17:49;21.70;99.90
13229;DHT22;6680;53.220;10.402;2022-08-25T09:20:39;21.80;99.90
13229;DHT22;6680;53.220;10.402;2022-08-25T09:23:20;22.00;99.90
13229;DHT22;6680;53.220;10.402;2022-08-25T09:25:59;22.10;99.90
13229;DHT22;6680;53.220;10.402;2022-08-25T09:28:32;22.10;99.90
13229;DHT22;6680;53.220;10.402;2022-08-25T09:31:04;22.10;99.90
13229;DHT22;6680;53.220;10.402;2022-08-25T09:33:34;22.20;99.90
13229;DHT22;6680;53.220;10.402;2022-08-25T09:36:02;22.30;99.90
13229;DHT22;6680;53.220;10.402;2022-08-25T09:40:58;22.40;99.90
13229;DHT22;6680;53.220;10.402;2022-08-25T09:43:30;22.30;99.90
13229;DHT22;6680;53.220;10.402;2022-08-25T09:46:00;22.50;99.90
13229;DHT22;6680;53.220;10.402;2022-08-25T09:48:28;22.60;99.90
13229;DHT22;6680;53.220;10.402;2022-08-25T09:50:59;22.70;99.90
13229;DHT22;6680;53.220;10.402;2022-08-25T09:53:27;22.70;99.90
13229;DHT22;6680;53.220;10.402;2022-08-25T09:55:59;22.60;99.90
13229;DHT22;6680;53.220;10.402;2022-08-25T09:58:30;22.50;99.90
13229;DHT22;6680;53.220;10.402;2022-08-25T10:01:10;22.50;99.90
13229;DHT22;6680;53.220;10.402;2022-08-25T10:03:53;22.50;99.90
13229;DHT22;6680;53.220;10.402;2022-08-25T10:06:21;22.50;99.90
13229;DHT22;6680;53.220;10.402;2022-08-25T10:08:54;22.50;99.90
13229;DHT22;6680;53.220;10.402;2022-08-25T10:11:32;22.60;99.90
13229;DHT22;6680;53.220;10.402;2022-08-25T10:14:04;22.90;99.90
13229;DHT22;6680;53.220;10.402;2022-08-25T10:16:31;22.80;99.90
13229;DHT22;6680;53.220;10.402;2022-08-25T10:19:07;22.90;99.90
13229;DHT22;6680;53.220;10.402;2022-08-25T10:21:35;23.00;99.90
13229;DHT22;6680;53.220;10.402;2022-08-25T10:24:03;23.20;99.90
13229;DHT22;6680;53.220;10.402;2022-08-25T10:26:37;23.00;99.90
13229;DHT22;6680;53.220;10.402;2022-08-25T10:29:14;23.10;99.90
13229;DHT22;6680;53.220;10.402;2022-08-25T10:31:46;23.10;99.90
13229;DHT22;6680;53.220;10.402;2022-08-25T10:34:24;23.20;99.90
13229;DHT22;6680;53.220;10.402;2022-08-25T10:36:59;23.40;99.90
13229;DHT22;6680;53.220;10.402;2022-08-25T10:39:36;23.40;99.90
13229;DHT22;6680;53.220;10.402;2022-08-25T10:42:13;23.50;99.90
13229;DHT22;6680;53.220;10.402;2022-08-25T10:44:51;23.60;99.90
13229;DHT22;6680;53.220;10.402;2022-08-25T10:47:51;23.70;99.90
13229;DHT22;6680;53.220;10.402;2022-08-25T10:50:26;23.80;99.90
13229;DHT22;6680;53.220;10.402;2022-08-25T10:53:19;24.00;99.90
13229;DHT22;6680;53.220;10.402;2022-08-25T10:55:56;24.20;99.90
13229;DHT22;6680;53.220;10.402;2022-08-25T10:58:35;24.20;99.90
13229;DHT22;6680;53.220;10.402;2022-08-25T11:01:17;24.30;99.90
13229;DHT22;6680;53.220;10.402;2022-08-25T11:03:54;24.50;99.90
13229;DHT22;6680;53.220;10.402;2022-08-25T11:06:29;24.50;99.90
13229;DHT22;6680;53.220;10.402;2022-08-25T11:09:03;24.60;99.90
13229;DHT22;6680;53.220;10.402;2022-08-25T11:11:33;24.70;99.90
13229;DHT22;6680;53.220;10.402;2022-08-25T11:14:03;24.70;99.90
13229;DHT22;6680;53.220;10.402;2022-08-25T11:16:37;24.70;99.90
13229;DHT22;6680;53.220;10.402;2022-08-25T11:19:10;24.80;99.90
13229;DHT22;6680;53.220;10.402;2022-08-25T11:21:48;25.00;99.90
13229;DHT22;6680;53.220;10.402;2022-08-25T11:24:28;25.00;99.90
13229;DHT22;6680;53.220;10.402;2022-08-25T11:26:58;25.10;99.90
13229;DHT22;6680;53.220;10.402;2022-08-25T11:29:29;25.20;99.90
13229;DHT22;6680;53.220;10.402;2022-08-25T11:31:59;25.30;99.90
13229;DHT22;6680;53.220;10.402;2022-08-25T11:34:29;25.30;99.90
13229;DHT22;6680;53.220;10.402;2022-08-25T11:36:58;25.50;99.90
13229;DHT22;6680;53.220;10.402;2022-08-25T11:39:54;25.60;99.90
13229;DHT22;6680;53.220;10.402;2022-08-25T11:42:33;25.80;99.90
13229;DHT22;6680;53.220;10.402;2022-08-25T11:45:17;26.00;99.90
13229;DHT22;6680;53.220;10.402;2022-08-25T11:47:59;26.20;99.90
13229;DHT22;6680;53.220;10.402;2022-08-25T11:50:31;26.30;99.90
13229;DHT22;6680;53.220;10.402;2022-08-25T11:53:02;26.40;99.90
13229;DHT22;6680;53.220;10.402;2022-08-25T11:55:48;26.40;99.90
13229;DHT22;6680;53.220;10.402;2022-08-25T11:58:27;26.50;99.90
13229;DHT22;6680;53.220;10.402;2022-08-25T12:00:56;26.50;99.90
13229;DHT22;6680;53.220;10.402;2022-08-25T12:03:51;26.50;99.90
13229;DHT22;6680;53.220;10.402;2022-08-25T12:06:22;26.50;99.90
13229;DHT22;6680;53.220;10.402;2022-08-25T12:08:53;26.40;99.90
13229;DHT22;6680;53.220;10.402;2022-08-25T12:11:48;26.40;99.90
13229;DHT22;6680;53.220;10.402;2022-08-25T12:14:34;26.50;99.90
13229;DHT22;6680;53.220;10.402;2022-08-25T12:17:11;26.70;99.90
13229;DHT22;6680;53.220;10.402;2022-08-25T12:19:53;26.70;99.90
13229;DHT22;6680;53.220;10.402;2022-08-25T12:22:41;26.80;99.90
13229;DHT22;6680;53.220;10.402;2022-08-25T12:25:26;26.90;99.90
13229;DHT22;6680;53.220;10.402;2022-08-25T12:28:02;27.10;99.90
13229;DHT22;6680;53.220;10.402;2022-08-25T12:30:39;27.30;99.90
13229;DHT22;6680;53.220;10.402;2022-08-25T12:33:14;27.50;99.90
13229;DHT22;6680;53.220;10.402;2022-08-25T12:35:54;27.70;99.90
13229;DHT22;6680;53.220;10.402;2022-08-25T12:38:29;27.80;99.90
13229;DHT22;6680;53.220;10.402;2022-08-25T12:41:00;27.80;99.90
13229;DHT22;6680;53.220;10.402;2022-08-25T12:43:31;27.80;99.90
13229;DHT22;6680;53.220;10.402;2022-08-25T12:49:29;27.90;99.90
13229;DHT22;6680;53.220;10.402;2022-08-25T12:52:01;28.00;99.90
13229;DHT22;6680;53.220;10.402;2022-08-25T12:54:38;28.10;99.90
13229;DHT22;6680;53.220;10.402;2022-08-25T12:57:32;28.30;99.90
13229;DHT22;6680;53.220;10.402;2022-08-25T13:00:09;28.40;99.90
13229;DHT22;6680;53.220;10.402;2022-08-25T13:03:00;28.50;99.90
13229;DHT22;6680;53.220;10.402;2022-08-25T13:08:53;28.80;99.90
13229;DHT22;6680;53.220;10.402;2022-08-25T13:11:28;28.80;99.90
13229;DHT22;6680;53.220;10.402;2022-08-25T13:14:03;28.90;99.90
13229;DHT22;6680;53.220;10.402;2022-08-25T13:16:31;28.70;99.90
13229;DHT22;6680;53.220;10.402;2022-08-25T13:19:03;28.70;99.90
13229;DHT22;6680;53.220;10.402;2022-08-25T13:21:33;28.60;99.90
13229;DHT22;6680;53.220;10.402;2022-08-25T13:24:05;28.70;99.90
13229;DHT22;6680;53.220;10.402;2022-08-25T13:26:36;28.60;99.90
13229;DHT22;6680;53.220;10.402;2022-08-25T13:29:13;28.70;99.90
13229;DHT22;6680;53.220;10.402;2022-08-25T13:31:50;28.60;99.90
13229;DHT22;6680;53.220;10.402;2022-08-25T13:34:20;28.50;99.90
13229;DHT22;6680;53.220;10.402;2022-08-25T13:36:48;28.50;99.90
13229;DHT22;6680;53.220;10.402;2022-08-25T13:39:35;28.40;99.90
13229;DHT22;6680;53.220;10.402;2022-08-25T13:42:04;28.30;99.90
13229;DHT22;6680;53.220;10.402;2022-08-25T13:44:35;28.10;99.90
13229;DHT22;6680;53.220;10.402;2022-08-25T13:47:07;28.10;99.90
13229;DHT22;6680;53.220;10.402;2022-08-25T13:49:35;28.10;99.90
13229;DHT22;6680;53.220;10.402;2022-08-25T13:52:03;28.00;99.90
13229;DHT22;6680;53.220;10.402;2022-08-25T13:54:36;27.90;99.90
13229;DHT22;6680;53.220;10.402;2022-08-25T13:57:12;27.90;99.90
13229;DHT22;6680;53.220;10.402;2022-08-25T13:59:40;27.80;99.90
13229;DHT22;6680;53.220;10.402;2022-08-25T14:02:09;27.80;99.90
13229;DHT22;6680;53.220;10.402;2022-08-25T14:04:46;27.80;99.90
13229;DHT22;6680;53.220;10.402;2022-08-25T14:07:28;27.80;99.90
13229;DHT22;6680;53.220;10.402;2022-08-25T14:10:00;27.80;99.90
13229;DHT22;6680;53.220;10.402;2022-08-25T14:12:33;27.80;99.90
13229;DHT22;6680;53.220;10.402;2022-08-25T14:15:04;27.90;99.90
13229;DHT22;6680;53.220;10.402;2022-08-25T14:17:32;28.00;99.90
13229;DHT22;6680;53.220;10.402;2022-08-25T14:19:59;28.00;99.90
13229;DHT22;6680;53.220;10.402;2022-08-25T14:22:26;27.90;99.90
13229;DHT22;6680;53.220;10.402;2022-08-25T14:24:53;27.90;99.90
13229;DHT22;6680;53.220;10.402;2022-08-25T14:27:22;27.90;99.90
13229;DHT22;6680;53.220;10.402;2022-08-25T14:29:49;28.00;99.90
13229;DHT22;6680;53.220;10.402;2022-08-25T14:34:43;28.20;99.90
13229;DHT22;6680;53.220;10.402;2022-08-25T14:37:13;28.30;99.90
13229;DHT22;6680;53.220;10.402;2022-08-25T14:39:41;28.10;99.90
13229;DHT22;6680;53.220;10.402;2022-08-25T14:42:07;27.90;99.90
13229;DHT22;6680;53.220;10.402;2022-08-25T14:44:35;27.70;99.90
13229;DHT22;6680;53.220;10.402;2022-08-25T14:47:03;27.60;99.90
13229;DHT22;6680;53.220;10.402;2022-08-25T14:49:34;27.50;99.90
13229;DHT22;6680;53.220;10.402;2022-08-25T14:52:05;27.40;99.90
13229;DHT22;6680;53.220;10.402;2022-08-25T14:54:33;27.30;99.90
13229;DHT22;6680;53.220;10.402;2022-08-25T14:57:00;27.30;99.90
13229;DHT22;6680;53.220;10.402;2022-08-25T15:01:56;27.40;99.90
13229;DHT22;6680;53.220;10.402;2022-08-25T15:04:26;27.40;99.90
13229;DHT22;6680;53.220;10.402;2022-08-25T15:06:56;27.30;99.90
13229;DHT22;6680;53.220;10.402;2022-08-25T15:09:23;27.40;99.90
13229;DHT22;6680;53.220;10.402;2022-08-25T15:11:51;27.30;99.90
13229;DHT22;6680;53.220;10.402;2022-08-25T15:14:20;27.30;99.90
13229;DHT22;6680;53.220;10.402;2022-08-25T15:16:49;27.40;99.90
13229;DHT22;6680;53.220;10.402;2022-08-25T15:19:19;27.40;99.90
13229;DHT22;6680;53.220;10.402;2022-08-25T15:21:47;27.40;99.90
13229;DHT22;6680;53.220;10.402;2022-08-25T15:24:16;27.40;99.90
13229;DHT22;6680;53.220;10.402;2022-08-25T15:26:45;27.40;99.90
13229;DHT22;6680;53.220;10.402;2022-08-25T15:29:15;27.50;99.90
13229;DHT22;6680;53.220;10.402;2022-08-25T15:31:42;27.60;99.90
13229;DHT22;6680;53.220;10.402;2022-08-25T15:34:09;27.70;99.90
13229;DHT22;6680;53.220;10.402;2022-08-25T15:36:37;27.70;99.90
13229;DHT22;6680;53.220;10.402;2022-08-25T15:39:04;27.70;99.90
13229;DHT22;6680;53.220;10.402;2022-08-25T15:41:31;27.60;99.90
13229;DHT22;6680;53.220;10.402;2022-08-25T15:43:58;27.30;99.90
13229;DHT22;6680;53.220;10.402;2022-08-25T15:46:26;27.60;99.90
13229;DHT22;6680;53.220;10.402;2022-08-25T15:48:54;27.50;99.90
13229;DHT22;6680;53.220;10.402;2022-08-25T15:51:21;27.50;99.90
13229;DHT22;6680;53.220;10.402;2022-08-25T15:53:49;27.50;99.90
13229;DHT22;6680;53.220;10.402;2022-08-25T15:56:16;27.40;99.90
13229;DHT22;6680;53.220;10.402;2022-08-25T15:58:44;27.40;99.90
13229;DHT22;6680;53.220;10.402;2022-08-25T16:01:12;27.50;99.90
13229;DHT22;6680;53.220;10.402;2022-08-25T16:03:38;27.40;99.90
13229;DHT22;6680;53.220;10.402;2022-08-25T16:06:05;27.40;99.90